sensor_id;sensor_type;location;lat;lon;timestamp;pressure;altitude;pressure_sealevel;temperature;humidity
34961;BME280;30789;52.030;7.110;2023-04-22T00:01:54;100150.13;;;9.56;86.06
34961;BME280;30789;52.030;7.110;2023-04-22T00:04:20;100141.41;;;9.40;86.07
34961;BME280;30789;52.030;7.110;2023-04-22T00:06:47;100139.06;;;9.31;86.41
34961;BME280;30789;52.030;7.110;2023-04-22T00:09:13;100141.41;;;9.40;85.96
34961;BME280;30789;52.030;7.110;2023-04-22T00:11:41;100126.88;;;9.32;85.49
34961;BME280;30789;52.030;7.110;2023-04-22T00:14:07;100124.50;;;9.31;85.91
34961;BME280;30789;52.030;7.110;2023-04-22T00:16:34;100128.06;;;9.31;85.32
34961;BME280;30789;52.030;7.110;2023-04-22T00:19:00;100115.88;;;9.29;85.22
34961;BME280;30789;52.030;7.110;2023-04-22T00:21:27;100116.25;;;9.20;85.69
34961;BME280;30789;52.030;7.110;2023-04-22T00:23:53;100116.59;;;9.05;85.91
34961;BME280;30789;52.030;7.110;2023-04-22T00:26:20;100119.34;;;9.08;86.07
34961;BME280;30789;52.030;7.110;2023-04-22T00:28:47;100113.84;;;9.08;85.53
34961;BME280;30789;52.030;7.110;2023-04-22T00:31:14;100110.72;;;9.10;85.40
34961;BME280;30789;52.030;7.110;2023-04-22T00:33:40;100109.13;;;8.98;85.95
34961;BME280;30789;52.030;7.110;2023-04-22T00:36:07;100109.13;;;9.02;85.80
34961;BME280;30789;52.030;7.110;2023-04-22T00:38:33;100101.28;;;8.97;85.48
34961;BME280;30789;52.030;7.110;2023-04-22T00:41:01;100106.69;;;8.86;85.96
34961;BME280;30789;52.030;7.110;2023-04-22T00:43:28;100102.00;;;8.87;85.71
34961;BME280;30789;52.030;7.110;2023-04-22T00:45:56;100107.09;;;8.85;85.38
34961;BME280;30789;52.030;7.110;2023-04-22T00:48:23;100114.91;;;8.79;86.03
34961;BME280;30789;52.030;7.110;2023-04-22T00:50:50;100110.19;;;8.73;86.46
34961;BME280;30789;52.030;7.110;2023-04-22T00:53:16;100104.22;;;8.56;86.66
34961;BME280;30789;52.030;7.110;2023-04-22T00:55:43;100105.44;;;8.62;86.60
34961;BME280;30789;52.030;7.110;2023-04-22T00:58:09;100097.22;;;8.66;86.29
34961;BME280;30789;52.030;7.110;2023-04-22T01:00:36;100103.47;;;8.63;85.91
34961;BME280;30789;52.030;7.110;2023-04-22T01:03:05;100098.03;;;8.74;85.60
34961;BME280;30789;52.030;7.110;2023-04-22T01:05:32;100092.84;;;8.61;85.67
34961;BME280;30789;52.030;7.110;2023-04-22T01:08:00;100088.50;;;8.50;85.95
34961;BME280;30789;52.030;7.110;2023-04-22T01:10:27;100093.66;;;8.62;84.95
34961;BME280;30789;52.030;7.110;2023-04-22T01:12:53;100088.13;;;8.55;85.52
34961;BME280;30789;52.030;7.110;2023-04-22T01:15:20;100097.53;;;8.50;85.77
34961;BME280;30789;52.030;7.110;2023-04-22T01:17:46;100099.88;;;8.55;86.12
34961;BME280;30789;52.030;7.110;2023-04-22T01:20:14;100094.06;;;8.64;85.39
34961;BME280;30789;52.030;7.110;2023-04-22T01:22:43;100091.66;;;8.52;85.33
34961;BME280;30789;52.030;7.110;2023-04-22T01:25:11;100088.88;;;8.48;85.62
34961;BME280;30789;52.030;7.110;2023-04-22T01:27:38;100088.44;;;8.39;85.63
34961;BME280;30789;52.030;7.110;2023-04-22T01:30:07;100087.66;;;8.39;85.62
34961;BME280;30789;52.030;7.110;2023-04-22T01:32:34;100093.91;;;8.36;85.97
34961;BME280;30789;52.030;7.110;2023-04-22T01:35:01;100087.69;;;8.46;85.58
34961;BME280;30789;52.030;7.110;2023-04-22T01:37:28;100088.84;;;8.45;86.04
34961;BME280;30789;52.030;7.110;2023-04-22T01:39:56;100092.38;;;8.42;85.82
34961;BME280;30789;52.030;7.110;2023-04-22T01:42:23;100084.06;;;8.31;86.23
34961;BME280;30789;52.030;7.110;2023-04-22T01:44:50;100088.78;;;8.31;86.14
34961;BME280;30789;52.030;7.110;2023-04-22T01:47:17;100083.19;;;8.17;86.33
34961;BME280;30789;52.030;7.110;2023-04-22T01:49:43;100087.09;;;8.12;87.11
34961;BME280;30789;52.030;7.110;2023-04-22T01:52:10;100094.97;;;8.21;87.28
34961;BME280;30789;52.030;7.110;2023-04-22T01:54:36;100095.44;;;8.30;86.23
34961;BME280;30789;52.030;7.110;2023-04-22T01:57:08;100091.81;;;8.19;86.00
34961;BME280;30789;52.030;7.110;2023-04-22T01:59:36;100080.69;;;7.98;86.90
34961;BME280;30789;52.030;7.110;2023-04-22T02:02:03;100084.25;;;8.02;87.10
34961;BME280;30789;52.030;7.110;2023-04-22T02:04:29;100089.88;;;8.19;86.33
34961;BME280;30789;52.030;7.110;2023-04-22T02:06:56;100098.97;;;8.27;86.07
34961;BME280;30789;52.030;7.110;2023-04-22T02:09:22;100092.13;;;8.07;86.28
34961;BME280;30789;52.030;7.110;2023-04-22T02:11:49;100090.09;;;7.97;87.17
34961;BME280;30789;52.030;7.110;2023-04-22T02:14:15;100079.97;;;8.08;87.25
34961;BME280;30789;52.030;7.110;2023-04-22T02:16:43;100087.19;;;8.23;86.50
34961;BME280;30789;52.030;7.110;2023-04-22T02:19:09;100084.34;;;8.16;86.55
34961;BME280;30789;52.030;7.110;2023-04-22T02:21:36;100084.44;;;8.23;86.46
34961;BME280;30789;52.030;7.110;2023-04-22T02:24:02;100080.53;;;8.27;86.84
34961;BME280;30789;52.030;7.110;2023-04-22T02:26:29;100068.00;;;8.30;86.86
34961;BME280;30789;52.030;7.110;2023-04-22T02:28:55;100069.94;;;8.26;87.29
34961;BME280;30789;52.030;7.110;2023-04-22T02:31:22;100074.28;;;8.30;87.55
34961;BME280;30789;52.030;7.110;2023-04-22T02:33:50;100074.28;;;8.34;87.66
34961;BME280;30789;52.030;7.110;2023-04-22T02:36:16;100068.47;;;8.42;87.71
34961;BME280;30789;52.030;7.110;2023-04-22T02:38:42;100062.97;;;8.49;87.24
34961;BME280;30789;52.030;7.110;2023-04-22T02:41:09;100068.53;;;8.56;86.71
34961;BME280;30789;52.030;7.110;2023-04-22T02:43:35;100068.53;;;8.56;86.68
34961;BME280;30789;52.030;7.110;2023-04-22T02:46:02;100070.44;;;8.52;87.01
34961;BME280;30789;52.030;7.110;2023-04-22T02:48:28;100067.72;;;8.52;87.47
34961;BME280;30789;52.030;7.110;2023-04-22T02:50:56;100065.75;;;8.53;87.37
34961;BME280;30789;52.030;7.110;2023-04-22T02:53:23;100062.38;;;8.95;86.97
34961;BME280;30789;52.030;7.110;2023-04-22T02:55:49;100060.50;;;9.20;86.86
34961;BME280;30789;52.030;7.110;2023-04-22T02:58:16;100059.31;;;9.38;86.66
34961;BME280;30789;52.030;7.110;2023-04-22T03:00:42;100058.56;;;9.62;86.25
34961;BME280;30789;52.030;7.110;2023-04-22T03:03:09;100057.75;;;9.83;85.78
34961;BME280;30789;52.030;7.110;2023-04-22T03:05:35;100057.75;;;10.04;85.31
34961;BME280;30789;52.030;7.110;2023-04-22T03:08:03;100047.13;;;10.16;84.88
34961;BME280;30789;52.030;7.110;2023-04-22T03:10:30;100052.22;;;10.21;84.58
34961;BME280;30789;52.030;7.110;2023-04-22T03:12:57;100045.56;;;10.15;84.40
34961;BME280;30789;52.030;7.110;2023-04-22T03:15:23;100048.66;;;10.28;84.07
34961;BME280;30789;52.030;7.110;2023-04-22T03:17:50;100046.31;;;10.30;83.70
34961;BME280;30789;52.030;7.110;2023-04-22T03:20:16;100052.97;;;10.25;83.98
34961;BME280;30789;52.030;7.110;2023-04-22T03:22:43;100054.22;;;10.17;84.31
34961;BME280;30789;52.030;7.110;2023-04-22T03:25:11;100050.63;;;10.24;83.97
34961;BME280;30789;52.030;7.110;2023-04-22T03:27:37;100051.84;;;9.98;84.57
34961;BME280;30789;52.030;7.110;2023-04-22T03:30:05;100044.75;;;10.15;84.23
34961;BME280;30789;52.030;7.110;2023-04-22T03:32:32;100043.59;;;10.12;83.73
34961;BME280;30789;52.030;7.110;2023-04-22T03:34:58;100046.31;;;10.23;83.80
34961;BME280;30789;52.030;7.110;2023-04-22T03:37:25;100038.06;;;10.19;83.12
34961;BME280;30789;52.030;7.110;2023-04-22T03:39:51;100042.00;;;10.22;83.44
34961;BME280;30789;52.030;7.110;2023-04-22T03:42:19;100027.88;;;9.99;83.87
34961;BME280;30789;52.030;7.110;2023-04-22T03:44:46;100041.59;;;10.23;83.31
34961;BME280;30789;52.030;7.110;2023-04-22T03:47:12;100031.75;;;10.29;82.48
34961;BME280;30789;52.030;7.110;2023-04-22T03:49:39;100037.66;;;10.24;82.80
34961;BME280;30789;52.030;7.110;2023-04-22T03:52:05;100031.75;;;10.33;82.17
34961;BME280;30789;52.030;7.110;2023-04-22T03:54:31;100032.06;;;10.53;81.34
34961;BME280;30789;52.030;7.110;2023-04-22T03:56:58;100030.47;;;10.55;81.23
34961;BME280;30789;52.030;7.110;2023-04-22T03:59:26;100023.84;;;10.42;81.68
34961;BME280;30789;52.030;7.110;2023-04-22T04:01:52;100021.84;;;10.50;81.01
34961;BME280;30789;52.030;7.110;2023-04-22T04:04:19;100032.06;;;10.46;80.79
34961;BME280;30789;52.030;7.110;2023-04-22T04:06:47;100031.75;;;10.29;81.70
34961;BME280;30789;52.030;7.110;2023-04-22T04:09:13;100025.03;;;10.38;81.76
34961;BME280;30789;52.030;7.110;2023-04-22T04:11:40;100020.69;;;10.44;81.35
34961;BME280;30789;52.030;7.110;2023-04-22T04:14:06;100026.91;;;10.62;80.34
34961;BME280;30789;52.030;7.110;2023-04-22T04:16:35;100030.06;;;10.57;80.47
34961;BME280;30789;52.030;7.110;2023-04-22T04:19:02;100025.41;;;10.43;81.19
34961;BME280;30789;52.030;7.110;2023-04-22T04:21:28;100017.09;;;10.50;80.88
34961;BME280;30789;52.030;7.110;2023-04-22T04:23:57;100016.38;;;10.35;81.30
34961;BME280;30789;52.030;7.110;2023-04-22T04:26:24;100019.47;;;10.52;80.48
34961;BME280;30789;52.030;7.110;2023-04-22T04:28:51;100016.34;;;10.50;80.62
34961;BME280;30789;52.030;7.110;2023-04-22T04:31:18;100024.53;;;10.64;79.86
34961;BME280;30789;52.030;7.110;2023-04-22T04:33:45;100019.41;;;10.66;79.63
34961;BME280;30789;52.030;7.110;2023-04-22T04:36:12;100019.78;;;10.68;79.73
34961;BME280;30789;52.030;7.110;2023-04-22T04:38:39;100017.91;;;10.51;80.65
34961;BME280;30789;52.030;7.110;2023-04-22T04:41:05;100013.19;;;10.51;81.11
34961;BME280;30789;52.030;7.110;2023-04-22T04:43:33;100010.78;;;10.57;80.69
34961;BME280;30789;52.030;7.110;2023-04-22T04:46:00;100011.97;;;10.52;80.64
34961;BME280;30789;52.030;7.110;2023-04-22T04:48:27;100016.31;;;10.53;80.38
34961;BME280;30789;52.030;7.110;2023-04-22T04:50:55;100013.63;;;10.35;81.06
34961;BME280;30789;52.030;7.110;2023-04-22T04:53:23;100012.84;;;10.35;81.32
34961;BME280;30789;52.030;7.110;2023-04-22T04:55:49;100010.03;;;10.53;80.50
34961;BME280;30789;52.030;7.110;2023-04-22T04:58:15;100011.28;;;10.34;81.44
34961;BME280;30789;52.030;7.110;2023-04-22T05:00:42;100005.81;;;10.27;81.65
34961;BME280;30789;52.030;7.110;2023-04-22T05:03:08;100011.69;;;10.25;81.80
34961;BME280;30789;52.030;7.110;2023-04-22T05:05:35;100009.34;;;10.20;82.00
34961;BME280;30789;52.030;7.110;2023-04-22T05:08:03;100010.44;;;10.44;81.01
34961;BME280;30789;52.030;7.110;2023-04-22T05:10:29;100004.56;;;10.35;81.22
34961;BME280;30789;52.030;7.110;2023-04-22T05:12:55;100006.25;;;10.11;82.14
34961;BME280;30789;52.030;7.110;2023-04-22T05:15:22;100003.06;;;10.23;82.47
34961;BME280;30789;52.030;7.110;2023-04-22T05:17:48;100002.66;;;10.25;81.60
34961;BME280;30789;52.030;7.110;2023-04-22T05:20:15;100007.34;;;10.31;81.87
34961;BME280;30789;52.030;7.110;2023-04-22T05:22:41;100006.16;;;10.36;80.96
34961;BME280;30789;52.030;7.110;2023-04-22T05:25:11;100004.91;;;10.48;80.76
34961;BME280;30789;52.030;7.110;2023-04-22T05:27:39;99996.66;;;10.51;80.62
34961;BME280;30789;52.030;7.110;2023-04-22T05:30:06;99999.81;;;10.43;80.08
34961;BME280;30789;52.030;7.110;2023-04-22T05:32:33;100006.00;;;10.68;79.49
34961;BME280;30789;52.030;7.110;2023-04-22T05:34:59;100003.56;;;10.84;78.61
34961;BME280;30789;52.030;7.110;2023-04-22T05:37:26;99997.22;;;10.90;78.50
34961;BME280;30789;52.030;7.110;2023-04-22T05:39:52;99999.69;;;10.71;79.03
34961;BME280;30789;52.030;7.110;2023-04-22T05:42:20;99996.88;;;10.85;78.38
34961;BME280;30789;52.030;7.110;2023-04-22T05:44:47;100011.03;;;10.87;78.87
34961;BME280;30789;52.030;7.110;2023-04-22T05:47:13;100008.22;;;10.94;78.39
34961;BME280;30789;52.030;7.110;2023-04-22T05:49:40;100014.47;;;11.05;77.11
34961;BME280;30789;52.030;7.110;2023-04-22T05:52:06;100012.06;;;11.10;77.21
34961;BME280;30789;52.030;7.110;2023-04-22T05:54:33;99999.47;;;11.09;77.33
34961;BME280;30789;52.030;7.110;2023-04-22T05:56:59;99997.25;;;10.87;78.64
34961;BME280;30789;52.030;7.110;2023-04-22T05:59:28;99999.09;;;11.04;78.45
34961;BME280;30789;52.030;7.110;2023-04-22T06:01:54;100006.22;;;10.98;78.63
34961;BME280;30789;52.030;7.110;2023-04-22T06:04:21;100003.88;;;10.96;78.96
34961;BME280;30789;52.030;7.110;2023-04-22T06:06:47;100000.69;;;11.05;78.53
34961;BME280;30789;52.030;7.110;2023-04-22T06:09:14;100003.84;;;11.00;78.86
34961;BME280;30789;52.030;7.110;2023-04-22T06:11:40;100003.03;;;11.06;79.03
34961;BME280;30789;52.030;7.110;2023-04-22T06:14:07;99998.16;;;11.28;77.69
34961;BME280;30789;52.030;7.110;2023-04-22T06:16:35;99991.00;;;11.34;76.92
34961;BME280;30789;52.030;7.110;2023-04-22T06:19:01;99987.44;;;11.37;77.13
34961;BME280;30789;52.030;7.110;2023-04-22T06:21:28;99986.50;;;11.54;76.00
34961;BME280;30789;52.030;7.110;2023-04-22T06:23:56;99991.72;;;11.45;76.54
34961;BME280;30789;52.030;7.110;2023-04-22T06:26:24;99991.59;;;11.62;76.54
34961;BME280;30789;52.030;7.110;2023-04-22T06:28:50;99992.75;;;11.65;76.07
34961;BME280;30789;52.030;7.110;2023-04-22T06:31:17;99995.84;;;11.70;76.04
34961;BME280;30789;52.030;7.110;2023-04-22T06:33:45;100005.69;;;11.71;75.46
34961;BME280;30789;52.030;7.110;2023-04-22T06:36:11;100005.09;;;11.94;74.77
34961;BME280;30789;52.030;7.110;2023-04-22T06:38:38;99999.06;;;12.06;73.49
34961;BME280;30789;52.030;7.110;2023-04-22T06:41:04;99999.09;;;11.99;73.95
34961;BME280;30789;52.030;7.110;2023-04-22T06:43:31;99999.38;;;12.12;73.59
34961;BME280;30789;52.030;7.110;2023-04-22T06:45:57;100001.72;;;12.13;73.18
34961;BME280;30789;52.030;7.110;2023-04-22T06:48:24;99998.00;;;12.27;72.98
34961;BME280;30789;52.030;7.110;2023-04-22T06:50:53;99995.47;;;12.43;73.09
34961;BME280;30789;52.030;7.110;2023-04-22T06:53:19;100000.00;;;12.60;72.59
34961;BME280;30789;52.030;7.110;2023-04-22T06:55:46;99999.22;;;12.59;72.56
34961;BME280;30789;52.030;7.110;2023-04-22T06:58:12;99998.38;;;12.62;72.27
34961;BME280;30789;52.030;7.110;2023-04-22T07:00:39;99994.78;;;12.65;72.36
34961;BME280;30789;52.030;7.110;2023-04-22T07:03:05;100000.50;;;12.81;72.33
34961;BME280;30789;52.030;7.110;2023-04-22T07:05:32;100002.88;;;12.79;71.70
34961;BME280;30789;52.030;7.110;2023-04-22T07:08:00;99997.66;;;12.85;71.26
34961;BME280;30789;52.030;7.110;2023-04-22T07:10:26;99994.81;;;12.92;71.20
34961;BME280;30789;52.030;7.110;2023-04-22T07:12:53;99999.84;;;13.00;70.89
34961;BME280;30789;52.030;7.110;2023-04-22T07:15:19;99991.22;;;12.95;70.58
34961;BME280;30789;52.030;7.110;2023-04-22T07:17:46;99990.97;;;12.86;71.40
34961;BME280;30789;52.030;7.110;2023-04-22T07:20:12;99993.56;;;12.96;71.06
34961;BME280;30789;52.030;7.110;2023-04-22T07:22:39;99974.06;;;13.07;71.71
34961;BME280;30789;52.030;7.110;2023-04-22T07:25:07;99985.09;;;13.10;71.90
34961;BME280;30789;52.030;7.110;2023-04-22T07:27:35;99973.16;;;12.87;73.32
34961;BME280;30789;52.030;7.110;2023-04-22T07:30:01;99971.97;;;13.14;72.13
34961;BME280;30789;52.030;7.110;2023-04-22T07:32:28;99977.09;;;13.16;71.57
34961;BME280;30789;52.030;7.110;2023-04-22T07:34:54;99974.88;;;13.07;72.41
34961;BME280;30789;52.030;7.110;2023-04-22T07:37:21;99975.16;;;13.13;71.55
34961;BME280;30789;52.030;7.110;2023-04-22T07:39:47;99968.25;;;13.01;71.66
34961;BME280;30789;52.030;7.110;2023-04-22T07:42:15;99966.22;;;13.28;72.07
34961;BME280;30789;52.030;7.110;2023-04-22T07:44:42;99968.81;;;13.39;71.65
34961;BME280;30789;52.030;7.110;2023-04-22T07:47:08;99978.56;;;13.47;71.81
34961;BME280;30789;52.030;7.110;2023-04-22T07:49:35;99982.28;;;13.60;71.36
34961;BME280;30789;52.030;7.110;2023-04-22T07:52:01;99969.66;;;13.59;71.37
34961;BME280;30789;52.030;7.110;2023-04-22T07:54:28;99973.50;;;13.88;70.22
34961;BME280;30789;52.030;7.110;2023-04-22T07:56:55;99968.28;;;14.13;68.07
34961;BME280;30789;52.030;7.110;2023-04-22T07:59:23;99978.66;;;14.29;68.24
34961;BME280;30789;52.030;7.110;2023-04-22T08:01:50;99973.00;;;14.36;67.49
34961;BME280;30789;52.030;7.110;2023-04-22T08:04:16;99977.69;;;14.39;66.77
34961;BME280;30789;52.030;7.110;2023-04-22T08:06:43;99960.63;;;14.40;67.06
34961;BME280;30789;52.030;7.110;2023-04-22T08:09:09;99958.88;;;14.66;65.24
34961;BME280;30789;52.030;7.110;2023-04-22T08:11:36;99967.31;;;14.78;66.18
34961;BME280;30789;52.030;7.110;2023-04-22T08:14:02;99961.94;;;14.71;64.97
34961;BME280;30789;52.030;7.110;2023-04-22T08:16:30;99962.75;;;14.88;65.30
34961;BME280;30789;52.030;7.110;2023-04-22T08:18:57;99952.78;;;14.90;65.17
34961;BME280;30789;52.030;7.110;2023-04-22T08:21:23;99952.13;;;15.18;65.39
34961;BME280;30789;52.030;7.110;2023-04-22T08:23:51;99953.78;;;15.32;63.68
34961;BME280;30789;52.030;7.110;2023-04-22T08:26:18;99935.88;;;15.33;64.11
34961;BME280;30789;52.030;7.110;2023-04-22T08:28:44;99950.16;;;15.51;63.39
34961;BME280;30789;52.030;7.110;2023-04-22T08:31:11;99950.91;;;15.52;62.85
34961;BME280;30789;52.030;7.110;2023-04-22T08:33:39;99933.47;;;15.67;63.28
34961;BME280;30789;52.030;7.110;2023-04-22T08:36:06;99930.28;;;15.97;62.58
34961;BME280;30789;52.030;7.110;2023-04-22T08:38:34;99931.75;;;16.14;62.28
34961;BME280;30789;52.030;7.110;2023-04-22T08:41:00;99931.19;;;16.48;61.67
34961;BME280;30789;52.030;7.110;2023-04-22T08:43:27;99927.56;;;16.63;60.97
34961;BME280;30789;52.030;7.110;2023-04-22T08:45:54;99927.69;;;16.85;59.97
34961;BME280;30789;52.030;7.110;2023-04-22T08:48:21;99935.94;;;16.88;58.76
34961;BME280;30789;52.030;7.110;2023-04-22T08:50:50;99936.25;;;16.78;58.47
34961;BME280;30789;52.030;7.110;2023-04-22T08:53:16;99943.06;;;16.77;60.25
34961;BME280;30789;52.030;7.110;2023-04-22T08:55:43;99944.38;;;16.85;60.33
34961;BME280;30789;52.030;7.110;2023-04-22T08:58:10;99935.94;;;17.01;59.76
34961;BME280;30789;52.030;7.110;2023-04-22T09:00:37;99933.69;;;17.21;59.19
34961;BME280;30789;52.030;7.110;2023-04-22T09:03:05;99944.50;;;17.32;58.17
34961;BME280;30789;52.030;7.110;2023-04-22T09:05:32;99946.56;;;17.40;58.37
34961;BME280;30789;52.030;7.110;2023-04-22T09:08:03;99939.13;;;17.25;55.97
34961;BME280;30789;52.030;7.110;2023-04-22T09:10:31;99944.38;;;17.23;57.07
34961;BME280;30789;52.030;7.110;2023-04-22T09:12:57;99943.69;;;17.56;56.36
34961;BME280;30789;52.030;7.110;2023-04-22T09:15:24;99933.81;;;17.77;56.23
34961;BME280;30789;52.030;7.110;2023-04-22T09:17:52;99919.69;;;17.71;56.56
34961;BME280;30789;52.030;7.110;2023-04-22T09:20:24;99905.97;;;17.98;55.77
34961;BME280;30789;52.030;7.110;2023-04-22T09:22:51;99907.78;;;18.14;55.79
34961;BME280;30789;52.030;7.110;2023-04-22T09:25:20;99905.00;;;18.14;55.99
34961;BME280;30789;52.030;7.110;2023-04-22T09:27:48;99911.28;;;18.05;55.25
34961;BME280;30789;52.030;7.110;2023-04-22T09:30:17;99908.28;;;18.00;55.67
34961;BME280;30789;52.030;7.110;2023-04-22T09:32:51;99923.41;;;18.11;57.98
34961;BME280;30789;52.030;7.110;2023-04-22T09:35:23;99917.84;;;18.33;56.21
34961;BME280;30789;52.030;7.110;2023-04-22T09:37:51;99915.31;;;18.47;56.24
34961;BME280;30789;52.030;7.110;2023-04-22T09:40:18;99913.03;;;18.55;55.42
34961;BME280;30789;52.030;7.110;2023-04-22T09:42:49;99907.59;;;18.82;55.08
34961;BME280;30789;52.030;7.110;2023-04-22T09:45:25;99898.13;;;18.89;53.13
34961;BME280;30789;52.030;7.110;2023-04-22T09:47:53;99899.31;;;19.18;53.05
34961;BME280;30789;52.030;7.110;2023-04-22T09:50:20;99896.59;;;19.45;54.70
34961;BME280;30789;52.030;7.110;2023-04-22T09:52:53;99898.06;;;19.68;52.44
34961;BME280;30789;52.030;7.110;2023-04-22T09:55:21;99894.00;;;19.69;52.66
34961;BME280;30789;52.030;7.110;2023-04-22T09:57:52;99899.13;;;20.06;51.38
34961;BME280;30789;52.030;7.110;2023-04-22T10:00:20;99907.59;;;20.66;50.68
34961;BME280;30789;52.030;7.110;2023-04-22T10:02:47;99901.06;;;20.51;47.50
34961;BME280;30789;52.030;7.110;2023-04-22T10:05:13;99907.38;;;20.28;48.82
34961;BME280;30789;52.030;7.110;2023-04-22T10:07:41;99898.06;;;20.73;49.44
34961;BME280;30789;52.030;7.110;2023-04-22T10:10:08;99897.38;;;20.96;49.80
34961;BME280;30789;52.030;7.110;2023-04-22T10:12:35;99894.06;;;21.30;48.93
34961;BME280;30789;52.030;7.110;2023-04-22T10:15:04;99889.66;;;21.61;46.36
34961;BME280;30789;52.030;7.110;2023-04-22T10:17:33;99886.53;;;22.36;43.09
34961;BME280;30789;52.030;7.110;2023-04-22T10:20:03;99873.06;;;22.40;44.45
34961;BME280;30789;52.030;7.110;2023-04-22T10:22:33;99878.97;;;23.20;44.37
34961;BME280;30789;52.030;7.110;2023-04-22T10:24:59;99876.84;;;23.70;42.40
34961;BME280;30789;52.030;7.110;2023-04-22T10:27:26;99876.50;;;23.42;40.89
34961;BME280;30789;52.030;7.110;2023-04-22T10:29:55;99876.88;;;23.35;41.11
34961;BME280;30789;52.030;7.110;2023-04-22T10:32:26;99878.31;;;23.10;41.12
34961;BME280;30789;52.030;7.110;2023-04-22T10:35:10;99876.50;;;23.42;41.06
34961;BME280;30789;52.030;7.110;2023-04-22T10:37:40;99873.53;;;23.51;41.85
34961;BME280;30789;52.030;7.110;2023-04-22T10:40:10;99867.91;;;23.16;40.74
34961;BME280;30789;52.030;7.110;2023-04-22T10:42:39;99869.88;;;23.45;40.90
34961;BME280;30789;52.030;7.110;2023-04-22T10:45:09;99881.97;;;23.51;39.18
34961;BME280;30789;52.030;7.110;2023-04-22T10:47:38;99874.56;;;22.99;40.20
34961;BME280;30789;52.030;7.110;2023-04-22T10:50:13;99874.25;;;23.11;40.42
34961;BME280;30789;52.030;7.110;2023-04-22T10:52:44;99871.38;;;23.61;39.58
34961;BME280;30789;52.030;7.110;2023-04-22T10:55:11;99869.88;;;24.36;38.94
34961;BME280;30789;52.030;7.110;2023-04-22T10:57:40;99862.16;;;24.57;37.75
34961;BME280;30789;52.030;7.110;2023-04-22T11:00:25;99859.38;;;24.93;38.52
34961;BME280;30789;52.030;7.110;2023-04-22T11:03:06;99864.09;;;25.13;38.38
34961;BME280;30789;52.030;7.110;2023-04-22T11:05:34;99851.75;;;25.53;36.53
34961;BME280;30789;52.030;7.110;2023-04-22T11:08:02;99848.06;;;25.89;35.51
34961;BME280;30789;52.030;7.110;2023-04-22T11:10:38;99855.97;;;25.79;35.14
34961;BME280;30789;52.030;7.110;2023-04-22T11:13:09;99855.03;;;25.99;36.77
34961;BME280;30789;52.030;7.110;2023-04-22T11:15:37;99845.81;;;26.09;34.92
34961;BME280;30789;52.030;7.110;2023-04-22T11:18:13;99836.31;;;26.01;35.06
34961;BME280;30789;52.030;7.110;2023-04-22T11:20:40;99839.66;;;26.05;35.10
34961;BME280;30789;52.030;7.110;2023-04-22T11:23:06;99832.38;;;25.82;35.26
34961;BME280;30789;52.030;7.110;2023-04-22T11:25:33;99831.91;;;25.95;35.34
34961;BME280;30789;52.030;7.110;2023-04-22T11:27:59;99834.00;;;26.16;35.41
34961;BME280;30789;52.030;7.110;2023-04-22T11:30:27;99837.88;;;26.24;34.09
34961;BME280;30789;52.030;7.110;2023-04-22T11:32:57;99832.00;;;25.47;36.54
34961;BME280;30789;52.030;7.110;2023-04-22T11:35:27;99832.41;;;25.93;35.77
34961;BME280;30789;52.030;7.110;2023-04-22T11:37:55;99835.31;;;26.48;34.53
34961;BME280;30789;52.030;7.110;2023-04-22T11:40:23;99844.53;;;26.99;34.89
34961;BME280;30789;52.030;7.110;2023-04-22T11:42:51;99838.38;;;27.00;33.70
34961;BME280;30789;52.030;7.110;2023-04-22T11:45:18;99837.81;;;27.35;34.45
34961;BME280;30789;52.030;7.110;2023-04-22T11:47:45;99839.69;;;26.77;34.25
34961;BME280;30789;52.030;7.110;2023-04-22T11:50:14;99832.47;;;26.26;35.87
34961;BME280;30789;52.030;7.110;2023-04-22T11:52:44;99835.34;;;25.03;36.96
34961;BME280;30789;52.030;7.110;2023-04-22T11:55:11;99827.25;;;24.49;36.89
34961;BME280;30789;52.030;7.110;2023-04-22T11:57:38;99821.97;;;24.05;38.46
34961;BME280;30789;52.030;7.110;2023-04-22T12:00:06;99824.78;;;24.05;39.46
34961;BME280;30789;52.030;7.110;2023-04-22T12:02:34;99826.31;;;23.20;39.61
34961;BME280;30789;52.030;7.110;2023-04-22T12:05:01;99821.97;;;22.99;41.15
34961;BME280;30789;52.030;7.110;2023-04-22T12:07:28;99821.41;;;23.15;41.41
34961;BME280;30789;52.030;7.110;2023-04-22T12:09:58;99818.53;;;23.10;41.23
34961;BME280;30789;52.030;7.110;2023-04-22T12:12:26;99825.91;;;22.73;42.04
34961;BME280;30789;52.030;7.110;2023-04-22T12:14:53;99820.78;;;22.28;43.28
34961;BME280;30789;52.030;7.110;2023-04-22T12:17:22;99822.25;;;21.56;43.97
34961;BME280;30789;52.030;7.110;2023-04-22T12:19:52;99821.16;;;21.15;44.79
34961;BME280;30789;52.030;7.110;2023-04-22T12:22:23;99818.78;;;21.23;45.07
34961;BME280;30789;52.030;7.110;2023-04-22T12:24:50;99821.28;;;21.21;44.49
34961;BME280;30789;52.030;7.110;2023-04-22T12:27:18;99811.25;;;21.05;45.07
34961;BME280;30789;52.030;7.110;2023-04-22T12:29:50;99815.72;;;21.35;44.02
34961;BME280;30789;52.030;7.110;2023-04-22T12:32:18;99826.69;;;22.59;42.05
34961;BME280;30789;52.030;7.110;2023-04-22T12:34:44;99814.84;;;22.69;41.20
34961;BME280;30789;52.030;7.110;2023-04-22T12:37:11;99820.69;;;23.00;42.57
34961;BME280;30789;52.030;7.110;2023-04-22T12:39:37;99820.31;;;23.27;42.88
34961;BME280;30789;52.030;7.110;2023-04-22T12:42:04;99822.88;;;23.11;42.52
34961;BME280;30789;52.030;7.110;2023-04-22T12:44:32;99807.94;;;22.07;42.10
34961;BME280;30789;52.030;7.110;2023-04-22T12:46:59;99805.19;;;21.83;42.84
34961;BME280;30789;52.030;7.110;2023-04-22T12:49:25;99805.34;;;21.65;43.65
34961;BME280;30789;52.030;7.110;2023-04-22T12:51:52;99805.91;;;21.16;45.31
34961;BME280;30789;52.030;7.110;2023-04-22T12:54:19;99814.31;;;21.16;45.09
34961;BME280;30789;52.030;7.110;2023-04-22T12:56:46;99807.00;;;20.86;46.58
34961;BME280;30789;52.030;7.110;2023-04-22T12:59:13;99806.31;;;20.91;46.90